sensor_id;sensor_type;location;lat;lon;timestamp;P1;durP1;ratioP1;P2;durP2;ratioP2
56997;SDS011;42890;44.244;22.530;2023-01-28T00:02:25;15.65;;;11.70;;
56997;SDS011;42890;44.244;22.530;2023-01-28T00:04:51;20.05;;;12.82;;
56997;SDS011;42890;44.244;22.530;2023-01-28T00:07:18;34.85;;;21.17;;
56997;SDS011;42890;44.244;22.530;2023-01-28T00:09:44;39.20;;;21.98;;
56997;SDS011;42890;44.244;22.530;2023-01-28T00:12:10;27.05;;;17.98;;
56997;SDS011;42890;44.244;22.530;2023-01-28T00:14:36;54.22;;;27.10;;
56997;SDS011;42890;44.244;22.530;2023-01-28T00:17:03;70.20;;;32.38;;
56997;SDS011;42890;44.244;22.530;2023-01-28T00:19:29;127.22;;;38.75;;
56997;SDS011;42890;44.244;22.530;2023-01-28T00:21:55;82.32;;;29.05;;
56997;SDS011;42890;44.244;22.530;2023-01-28T00:24:22;71.20;;;31.30;;
56997;SDS011;42890;44.244;22.530;2023-01-28T00:26:48;76.00;;;28.92;;
56997;SDS011;42890;44.244;22.530;2023-01-28T00:29:14;45.78;;;22.88;;
56997;SDS011;42890;44.244;22.530;2023-01-28T00:31:40;28.90;;;15.88;;
56997;SDS011;42890;44.244;22.530;2023-01-28T00:34:06;30.23;;;18.58;;
56997;SDS011;42890;44.244;22.530;2023-01-28T00:36:32;96.10;;;49.50;;
56997;SDS011;42890;44.244;22.530;2023-01-28T00:39:03;167.18;;;63.65;;
56997;SDS011;42890;44.244;22.530;2023-01-28T00:41:30;54.63;;;33.15;;
56997;SDS011;42890;44.244;22.530;2023-01-28T00:43:57;50.70;;;34.78;;
56997;SDS011;42890;44.244;22.530;2023-01-28T00:46:23;85.82;;;35.25;;
56997;SDS011;42890;44.244;22.530;2023-01-28T00:48:51;40.35;;;23.40;;
56997;SDS011;42890;44.244;22.530;2023-01-28T00:51:17;51.42;;;31.25;;
56997;SDS011;42890;44.244;22.530;2023-01-28T00:53:47;41.25;;;24.50;;
56997;SDS011;42890;44.244;22.530;2023-01-28T00:56:14;38.83;;;24.85;;
56997;SDS011;42890;44.244;22.530;2023-01-28T00:58:40;29.50;;;19.08;;
56997;SDS011;42890;44.244;22.530;2023-01-28T01:01:11;30.55;;;18.45;;
56997;SDS011;42890;44.244;22.530;2023-01-28T01:03:37;58.55;;;28.15;;
56997;SDS011;42890;44.244;22.530;2023-01-28T01:06:04;37.88;;;22.17;;
56997;SDS011;42890;44.244;22.530;2023-01-28T01:08:30;37.67;;;21.15;;
56997;SDS011;42890;44.244;22.530;2023-01-28T01:11:00;39.53;;;24.83;;
56997;SDS011;42890;44.244;22.530;2023-01-28T01:13:26;23.33;;;17.00;;
56997;SDS011;42890;44.244;22.530;2023-01-28T01:16:05;17.50;;;14.23;;
56997;SDS011;42890;44.244;22.530;2023-01-28T01:18:32;12.88;;;11.02;;
56997;SDS011;42890;44.244;22.530;2023-01-28T01:20:59;16.33;;;12.35;;
56997;SDS011;42890;44.244;22.530;2023-01-28T01:23:25;27.27;;;19.30;;
56997;SDS011;42890;44.244;22.530;2023-01-28T01:25:52;16.40;;;13.05;;
56997;SDS011;42890;44.244;22.530;2023-01-28T01:28:18;22.27;;;16.65;;
56997;SDS011;42890;44.244;22.530;2023-01-28T01:30:45;29.95;;;21.25;;
56997;SDS011;42890;44.244;22.530;2023-01-28T01:33:11;44.03;;;26.08;;
56997;SDS011;42890;44.244;22.530;2023-01-28T01:35:37;48.85;;;27.13;;
56997;SDS011;42890;44.244;22.530;2023-01-28T01:38:03;39.63;;;21.48;;
56997;SDS011;42890;44.244;22.530;2023-01-28T01:40:29;34.83;;;22.15;;
56997;SDS011;42890;44.244;22.530;2023-01-28T01:42:55;57.58;;;28.80;;
56997;SDS011;42890;44.244;22.530;2023-01-28T01:45:21;68.82;;;30.95;;
56997;SDS011;42890;44.244;22.530;2023-01-28T01:50:36;45.03;;;24.30;;
56997;SDS011;42890;44.244;22.530;2023-01-28T01:53:12;37.92;;;20.27;;
56997;SDS011;42890;44.244;22.530;2023-01-28T01:55:40;63.75;;;29.02;;
56997;SDS011;42890;44.244;22.530;2023-01-28T01:58:09;35.45;;;19.83;;
56997;SDS011;42890;44.244;22.530;2023-01-28T02:00:36;85.40;;;33.95;;
56997;SDS011;42890;44.244;22.530;2023-01-28T02:03:03;53.05;;;28.73;;
56997;SDS011;42890;44.244;22.530;2023-01-28T02:05:29;51.67;;;27.38;;
56997;SDS011;42890;44.244;22.530;2023-01-28T02:07:56;51.72;;;27.20;;
56997;SDS011;42890;44.244;22.530;2023-01-28T02:10:41;50.47;;;24.33;;
56997;SDS011;42890;44.244;22.530;2023-01-28T02:13:08;72.88;;;34.88;;
56997;SDS011;42890;44.244;22.530;2023-01-28T02:15:34;92.95;;;35.00;;
56997;SDS011;42890;44.244;22.530;2023-01-28T02:18:00;62.70;;;26.67;;
56997;SDS011;42890;44.244;22.530;2023-01-28T02:20:32;45.92;;;23.77;;
56997;SDS011;42890;44.244;22.530;2023-01-28T02:23:13;57.35;;;27.17;;
56997;SDS011;42890;44.244;22.530;2023-01-28T02:30:59;43.63;;;23.38;;
56997;SDS011;42890;44.244;22.530;2023-01-28T02:33:32;41.00;;;21.75;;
56997;SDS011;42890;44.244;22.530;2023-01-28T02:38:47;34.40;;;22.33;;
56997;SDS011;42890;44.244;22.530;2023-01-28T02:41:17;27.35;;;18.00;;
56997;SDS011;42890;44.244;22.530;2023-01-28T02:43:46;30.25;;;21.92;;
56997;SDS011;42890;44.244;22.530;2023-01-28T02:48:57;25.55;;;19.00;;
56997;SDS011;42890;44.244;22.530;2023-01-28T02:54:08;41.92;;;27.25;;
56997;SDS011;42890;44.244;22.530;2023-01-28T02:56:44;30.98;;;21.23;;
56997;SDS011;42890;44.244;22.530;2023-01-28T02:59:13;27.45;;;19.75;;
56997;SDS011;42890;44.244;22.530;2023-01-28T03:05:18;17.98;;;12.98;;
56997;SDS011;42890;44.244;22.530;2023-01-28T03:07:25;43.22;;;28.05;;
56997;SDS011;42890;44.244;22.530;2023-01-28T03:09:52;32.35;;;21.50;;
56997;SDS011;42890;44.244;22.530;2023-01-28T03:12:23;30.90;;;22.83;;
56997;SDS011;42890;44.244;22.530;2023-01-28T03:15:13;60.50;;;31.00;;
56997;SDS011;42890;44.244;22.530;2023-01-28T03:26:34;21.08;;;13.60;;
56997;SDS011;42890;44.244;22.530;2023-01-28T03:29:21;17.92;;;13.52;;
56997;SDS011;42890;44.244;22.530;2023-01-28T03:32:07;16.63;;;14.80;;
56997;SDS011;42890;44.244;22.530;2023-01-28T03:34:52;12.63;;;11.15;;
56997;SDS011;42890;44.244;22.530;2023-01-28T03:37:37;16.38;;;12.55;;
56997;SDS011;42890;44.244;22.530;2023-01-28T03:40:04;10.55;;;9.45;;
56997;SDS011;42890;44.244;22.530;2023-01-28T03:42:31;10.60;;;9.60;;
56997;SDS011;42890;44.244;22.530;2023-01-28T03:44:57;13.15;;;11.95;;
56997;SDS011;42890;44.244;22.530;2023-01-28T03:47:26;32.08;;;21.70;;
56997;SDS011;42890;44.244;22.530;2023-01-28T03:49:53;23.85;;;17.90;;
56997;SDS011;42890;44.244;22.530;2023-01-28T03:52:23;38.72;;;23.33;;
56997;SDS011;42890;44.244;22.530;2023-01-28T03:54:49;33.97;;;24.00;;
56997;SDS011;42890;44.244;22.530;2023-01-28T03:57:17;26.20;;;17.92;;
56997;SDS011;42890;44.244;22.530;2023-01-28T03:59:44;29.58;;;21.73;;
56997;SDS011;42890;44.244;22.530;2023-01-28T04:02:10;16.45;;;13.77;;
56997;SDS011;42890;44.244;22.530;2023-01-28T04:04:37;18.77;;;15.75;;
56997;SDS011;42890;44.244;22.530;2023-01-28T04:07:03;27.92;;;20.92;;
56997;SDS011;42890;44.244;22.530;2023-01-28T04:09:30;18.77;;;15.77;;
56997;SDS011;42890;44.244;22.530;2023-01-28T04:11:56;22.25;;;18.63;;
56997;SDS011;42890;44.244;22.530;2023-01-28T04:14:22;15.20;;;12.70;;
56997;SDS011;42890;44.244;22.530;2023-01-28T04:16:48;18.17;;;14.88;;
56997;SDS011;42890;44.244;22.530;2023-01-28T04:19:14;26.55;;;21.50;;
56997;SDS011;42890;44.244;22.530;2023-01-28T04:21:40;21.70;;;16.95;;
56997;SDS011;42890;44.244;22.530;2023-01-28T04:24:07;15.32;;;12.48;;
56997;SDS011;42890;44.244;22.530;2023-01-28T04:26:33;15.82;;;14.18;;
56997;SDS011;42890;44.244;22.530;2023-01-28T04:28:59;16.85;;;15.05;;
56997;SDS011;42890;44.244;22.530;2023-01-28T04:31:25;24.45;;;20.10;;
56997;SDS011;42890;44.244;22.530;2023-01-28T04:33:51;20.65;;;16.70;;
56997;SDS011;42890;44.244;22.530;2023-01-28T04:36:17;16.13;;;14.43;;
56997;SDS011;42890;44.244;22.530;2023-01-28T04:38:43;15.88;;;13.73;;
56997;SDS011;42890;44.244;22.530;2023-01-28T04:41:09;11.63;;;10.43;;
56997;SDS011;42890;44.244;22.530;2023-01-28T04:43:36;12.52;;;11.27;;
56997;SDS011;42890;44.244;22.530;2023-01-28T04:46:02;9.63;;;8.73;;
56997;SDS011;42890;44.244;22.530;2023-01-28T04:48:28;12.00;;;10.73;;
56997;SDS011;42890;44.244;22.530;2023-01-28T04:50:55;9.50;;;8.40;;
56997;SDS011;42890;44.244;22.530;2023-01-28T04:53:21;9.98;;;9.05;;
56997;SDS011;42890;44.244;22.530;2023-01-28T04:55:47;10.63;;;9.52;;
56997;SDS011;42890;44.244;22.530;2023-01-28T04:58:13;11.00;;;9.90;;
56997;SDS011;42890;44.244;22.530;2023-01-28T05:00:39;17.48;;;9.57;;
56997;SDS011;42890;44.244;22.530;2023-01-28T05:03:05;14.23;;;12.73;;
56997;SDS011;42890;44.244;22.530;2023-01-28T05:05:31;17.42;;;13.85;;
56997;SDS011;42890;44.244;22.530;2023-01-28T05:07:58;13.98;;;11.93;;
56997;SDS011;42890;44.244;22.530;2023-01-28T05:10:24;19.27;;;15.05;;
56997;SDS011;42890;44.244;22.530;2023-01-28T05:12:51;18.40;;;15.05;;
56997;SDS011;42890;44.244;22.530;2023-01-28T05:15:17;13.57;;;12.15;;
56997;SDS011;42890;44.244;22.530;2023-01-28T05:17:44;20.98;;;14.52;;
56997;SDS011;42890;44.244;22.530;2023-01-28T05:20:11;26.25;;;18.88;;
56997;SDS011;42890;44.244;22.530;2023-01-28T05:22:37;23.75;;;18.45;;
56997;SDS011;42890;44.244;22.530;2023-01-28T05:25:04;34.05;;;24.08;;
56997;SDS011;42890;44.244;22.530;2023-01-28T05:27:30;25.25;;;18.05;;
56997;SDS011;42890;44.244;22.530;2023-01-28T05:29:57;14.27;;;12.70;;
56997;SDS011;42890;44.244;22.530;2023-01-28T05:32:23;16.20;;;13.05;;
56997;SDS011;42890;44.244;22.530;2023-01-28T05:34:49;19.73;;;16.63;;
56997;SDS011;42890;44.244;22.530;2023-01-28T05:37:15;17.83;;;15.85;;
56997;SDS011;42890;44.244;22.530;2023-01-28T05:39:41;20.83;;;18.60;;
56997;SDS011;42890;44.244;22.530;2023-01-28T05:42:08;32.53;;;28.23;;
56997;SDS011;42890;44.244;22.530;2023-01-28T05:44:34;20.05;;;16.85;;
56997;SDS011;42890;44.244;22.530;2023-01-28T05:47:01;33.28;;;21.35;;
56997;SDS011;42890;44.244;22.530;2023-01-28T05:49:28;38.72;;;25.80;;
56997;SDS011;42890;44.244;22.530;2023-01-28T05:51:54;10.55;;;8.57;;
56997;SDS011;42890;44.244;22.530;2023-01-28T05:54:20;22.23;;;17.45;;
56997;SDS011;42890;44.244;22.530;2023-01-28T05:56:46;17.60;;;14.30;;
56997;SDS011;42890;44.244;22.530;2023-01-28T05:59:12;13.30;;;11.90;;
56997;SDS011;42890;44.244;22.530;2023-01-28T06:01:38;13.55;;;12.10;;
56997;SDS011;42890;44.244;22.530;2023-01-28T06:04:05;15.68;;;13.15;;
56997;SDS011;42890;44.244;22.530;2023-01-28T06:06:31;15.75;;;12.52;;
56997;SDS011;42890;44.244;22.530;2023-01-28T06:08:57;15.25;;;12.80;;
56997;SDS011;42890;44.244;22.530;2023-01-28T06:11:23;21.83;;;18.95;;
56997;SDS011;42890;44.244;22.530;2023-01-28T06:13:49;20.25;;;15.25;;
56997;SDS011;42890;44.244;22.530;2023-01-28T06:16:15;12.07;;;10.38;;
56997;SDS011;42890;44.244;22.530;2023-01-28T06:18:42;18.95;;;16.77;;
56997;SDS011;42890;44.244;22.530;2023-01-28T06:21:09;383.58;;;144.18;;
56997;SDS011;42890;44.244;22.530;2023-01-28T06:23:35;297.27;;;109.63;;
56997;SDS011;42890;44.244;22.530;2023-01-28T06:26:01;134.50;;;60.42;;
56997;SDS011;42890;44.244;22.530;2023-01-28T06:28:27;132.27;;;54.95;;
56997;SDS011;42890;44.244;22.530;2023-01-28T06:30:54;93.28;;;44.80;;
56997;SDS011;42890;44.244;22.530;2023-01-28T06:33:20;85.10;;;55.88;;
56997;SDS011;42890;44.244;22.530;2023-01-28T06:35:48;69.18;;;36.10;;
56997;SDS011;42890;44.244;22.530;2023-01-28T06:38:14;49.75;;;26.92;;
56997;SDS011;42890;44.244;22.530;2023-01-28T06:40:40;82.25;;;37.67;;
56997;SDS011;42890;44.244;22.530;2023-01-28T06:43:06;97.68;;;36.42;;
56997;SDS011;42890;44.244;22.530;2023-01-28T06:45:32;73.60;;;34.33;;
56997;SDS011;42890;44.244;22.530;2023-01-28T06:47:59;132.43;;;47.10;;
56997;SDS011;42890;44.244;22.530;2023-01-28T06:50:25;48.60;;;27.65;;
56997;SDS011;42890;44.244;22.530;2023-01-28T06:52:51;77.05;;;36.85;;
56997;SDS011;42890;44.244;22.530;2023-01-28T06:55:17;65.93;;;29.70;;
56997;SDS011;42890;44.244;22.530;2023-01-28T06:57:43;35.00;;;22.70;;
56997;SDS011;42890;44.244;22.530;2023-01-28T07:00:10;36.42;;;22.45;;
56997;SDS011;42890;44.244;22.530;2023-01-28T07:02:38;31.27;;;23.80;;
56997;SDS011;42890;44.244;22.530;2023-01-28T07:05:05;53.00;;;27.23;;
56997;SDS011;42890;44.244;22.530;2023-01-28T07:07:31;44.60;;;23.55;;
56997;SDS011;42890;44.244;22.530;2023-01-28T07:09:57;37.58;;;24.05;;
56997;SDS011;42890;44.244;22.530;2023-01-28T07:12:23;30.45;;;18.75;;
56997;SDS011;42890;44.244;22.530;2023-01-28T07:14:49;24.55;;;18.20;;
56997;SDS011;42890;44.244;22.530;2023-01-28T07:17:15;31.55;;;19.15;;
56997;SDS011;42890;44.244;22.530;2023-01-28T07:19:41;138.40;;;55.92;;
56997;SDS011;42890;44.244;22.530;2023-01-28T07:22:07;50.50;;;33.90;;
56997;SDS011;42890;44.244;22.530;2023-01-28T07:24:33;54.30;;;35.67;;
56997;SDS011;42890;44.244;22.530;2023-01-28T07:27:00;86.65;;;34.33;;
56997;SDS011;42890;44.244;22.530;2023-01-28T07:29:26;101.05;;;36.30;;
56997;SDS011;42890;44.244;22.530;2023-01-28T07:31:52;79.68;;;31.48;;
56997;SDS011;42890;44.244;22.530;2023-01-28T07:34:18;64.30;;;26.80;;
56997;SDS011;42890;44.244;22.530;2023-01-28T07:36:44;70.95;;;30.35;;
56997;SDS011;42890;44.244;22.530;2023-01-28T07:39:10;47.13;;;22.02;;
56997;SDS011;42890;44.244;22.530;2023-01-28T07:41:36;34.05;;;21.75;;
56997;SDS011;42890;44.244;22.530;2023-01-28T07:44:02;80.43;;;35.40;;
56997;SDS011;42890;44.244;22.530;2023-01-28T07:46:28;88.50;;;41.08;;
56997;SDS011;42890;44.244;22.530;2023-01-28T07:48:55;83.32;;;38.30;;
56997;SDS011;42890;44.244;22.530;2023-01-28T07:51:21;136.82;;;45.00;;
56997;SDS011;42890;44.244;22.530;2023-01-28T07:53:47;186.35;;;54.92;;
56997;SDS011;42890;44.244;22.530;2023-01-28T07:56:13;84.63;;;34.20;;
56997;SDS011;42890;44.244;22.530;2023-01-28T07:58:39;57.78;;;26.50;;
56997;SDS011;42890;44.244;22.530;2023-01-28T08:01:05;43.67;;;23.35;;
56997;SDS011;42890;44.244;22.530;2023-01-28T08:03:31;50.10;;;27.10;;
56997;SDS011;42890;44.244;22.530;2023-01-28T08:05:58;42.75;;;29.88;;
56997;SDS011;42890;44.244;22.530;2023-01-28T08:08:25;73.45;;;42.53;;
56997;SDS011;42890;44.244;22.530;2023-01-28T08:10:51;55.33;;;36.00;;
56997;SDS011;42890;44.244;22.530;2023-01-28T08:13:18;66.22;;;39.22;;
56997;SDS011;42890;44.244;22.530;2023-01-28T08:15:45;95.75;;;44.08;;
56997;SDS011;42890;44.244;22.530;2023-01-28T08:18:12;75.07;;;36.35;;
56997;SDS011;42890;44.244;22.530;2023-01-28T08:20:39;72.00;;;39.30;;
56997;SDS011;42890;44.244;22.530;2023-01-28T08:23:10;414.00;;;214.43;;
56997;SDS011;42890;44.244;22.530;2023-01-28T08:25:36;304.42;;;74.13;;
56997;SDS011;42890;44.244;22.530;2023-01-28T08:28:03;187.13;;;48.90;;
56997;SDS011;42890;44.244;22.530;2023-01-28T08:30:29;95.70;;;37.08;;
56997;SDS011;42890;44.244;22.530;2023-01-28T08:32:56;32.70;;;17.45;;
56997;SDS011;42890;44.244;22.530;2023-01-28T08:35:22;45.15;;;22.27;;
56997;SDS011;42890;44.244;22.530;2023-01-28T08:37:48;20.75;;;16.00;;
56997;SDS011;42890;44.244;22.530;2023-01-28T08:40:14;25.80;;;15.93;;
56997;SDS011;42890;44.244;22.530;2023-01-28T08:42:47;22.52;;;16.63;;
56997;SDS011;42890;44.244;22.530;2023-01-28T08:45:13;24.55;;;18.80;;
56997;SDS011;42890;44.244;22.530;2023-01-28T08:47:49;56.08;;;40.53;;
56997;SDS011;42890;44.244;22.530;2023-01-28T08:50:15;76.70;;;48.60;;
56997;SDS011;42890;44.244;22.530;2023-01-28T08:52:42;92.13;;;49.45;;
56997;SDS011;42890;44.244;22.530;2023-01-28T08:55:09;155.40;;;63.45;;
56997;SDS011;42890;44.244;22.530;2023-01-28T08:57:35;129.25;;;50.60;;
56997;SDS011;42890;44.244;22.530;2023-01-28T09:00:02;138.95;;;52.10;;
56997;SDS011;42890;44.244;22.530;2023-01-28T09:02:29;112.95;;;46.78;;
56997;SDS011;42890;44.244;22.530;2023-01-28T09:04:55;116.57;;;44.92;;
56997;SDS011;42890;44.244;22.530;2023-01-28T09:07:21;96.35;;;42.30;;
56997;SDS011;42890;44.244;22.530;2023-01-28T09:09:47;154.35;;;56.13;;
56997;SDS011;42890;44.244;22.530;2023-01-28T09:12:13;132.07;;;52.88;;
56997;SDS011;42890;44.244;22.530;2023-01-28T09:14:40;231.48;;;93.80;;
56997;SDS011;42890;44.244;22.530;2023-01-28T09:17:07;204.05;;;74.55;;
56997;SDS011;42890;44.244;22.530;2023-01-28T09:19:33;102.43;;;52.15;;
56997;SDS011;42890;44.244;22.530;2023-01-28T09:21:59;139.95;;;51.17;;
56997;SDS011;42890;44.244;22.530;2023-01-28T09:24:25;125.18;;;45.83;;
56997;SDS011;42890;44.244;22.530;2023-01-28T09:26:51;62.20;;;36.20;;
56997;SDS011;42890;44.244;22.530;2023-01-28T09:29:17;52.65;;;28.20;;
56997;SDS011;42890;44.244;22.530;2023-01-28T09:31:43;55.90;;;34.38;;
56997;SDS011;42890;44.244;22.530;2023-01-28T09:34:09;77.55;;;46.15;;
56997;SDS011;42890;44.244;22.530;2023-01-28T09:36:35;41.03;;;28.98;;
56997;SDS011;42890;44.244;22.530;2023-01-28T09:39:02;55.88;;;36.92;;
56997;SDS011;42890;44.244;22.530;2023-01-28T09:42:18;94.53;;;48.75;;
56997;SDS011;42890;44.244;22.530;2023-01-28T09:47:00;63.33;;;36.75;;
56997;SDS011;42890;44.244;22.530;2023-01-28T09:49:38;69.45;;;38.85;;
56997;SDS011;42890;44.244;22.530;2023-01-28T09:52:07;27.20;;;20.15;;
56997;SDS011;42890;44.244;22.530;2023-01-28T10:00:14;62.65;;;40.80;;
56997;SDS011;42890;44.244;22.530;2023-01-28T10:02:59;107.18;;;55.13;;
56997;SDS011;42890;44.244;22.530;2023-01-28T10:10:49;76.57;;;39.17;;
56997;SDS011;42890;44.244;22.530;2023-01-28T10:15:58;89.72;;;48.67;;
56997;SDS011;42890;44.244;22.530;2023-01-28T10:23:49;192.05;;;69.50;;
56997;SDS011;42890;44.244;22.530;2023-01-28T10:26:24;167.82;;;52.72;;
56997;SDS011;42890;44.244;22.530;2023-01-28T10:28:53;93.75;;;46.22;;
56997;SDS011;42890;44.244;22.530;2023-01-28T10:31:20;50.78;;;36.08;;
56997;SDS011;42890;44.244;22.530;2023-01-28T10:33:46;99.57;;;48.65;;
56997;SDS011;42890;44.244;22.530;2023-01-28T10:36:13;41.30;;;29.27;;
56997;SDS011;42890;44.244;22.530;2023-01-28T10:38:39;32.65;;;25.92;;
56997;SDS011;42890;44.244;22.530;2023-01-28T10:41:05;106.90;;;56.85;;
56997;SDS011;42890;44.244;22.530;2023-01-28T10:43:32;90.25;;;57.58;;
56997;SDS011;42890;44.244;22.530;2023-01-28T10:46:06;122.75;;;68.88;;
56997;SDS011;42890;44.244;22.530;2023-01-28T10:48:38;52.45;;;36.42;;
56997;SDS011;42890;44.244;22.530;2023-01-28T10:51:06;55.40;;;39.40;;
56997;SDS011;42890;44.244;22.530;2023-01-28T10:53:36;51.83;;;35.05;;
56997;SDS011;42890;44.244;22.530;2023-01-28T10:56:06;71.40;;;42.42;;
56997;SDS011;42890;44.244;22.530;2023-01-28T10:58:33;43.05;;;29.48;;
56997;SDS011;42890;44.244;22.530;2023-01-28T11:01:05;73.07;;;35.05;;
56997;SDS011;42890;44.244;22.530;2023-01-28T11:03:31;47.22;;;30.60;;
56997;SDS011;42890;44.244;22.530;2023-01-28T11:06:00;24.40;;;17.30;;
56997;SDS011;42890;44.244;22.530;2023-01-28T11:08:27;100.80;;;55.55;;
56997;SDS011;42890;44.244;22.530;2023-01-28T11:10:54;79.65;;;42.95;;
56997;SDS011;42890;44.244;22.530;2023-01-28T11:13:21;60.78;;;35.63;;
56997;SDS011;42890;44.244;22.530;2023-01-28T11:15:49;154.00;;;68.07;;
56997;SDS011;42890;44.244;22.530;2023-01-28T11:18:17;254.63;;;116.15;;
56997;SDS011;42890;44.244;22.530;2023-01-28T11:20:48;41.63;;;28.13;;
56997;SDS011;42890;44.244;22.530;2023-01-28T11:23:26;112.90;;;45.28;;
56997;SDS011;42890;44.244;22.530;2023-01-28T11:26:27;80.13;;;40.67;;
56997;SDS011;42890;44.244;22.530;2023-01-28T11:28:46;39.22;;;28.25;;
56997;SDS011;42890;44.244;22.530;2023-01-28T11:31:16;57.78;;;41.72;;
56997;SDS011;42890;44.244;22.530;2023-01-28T11:33:55;41.97;;;32.35;;
56997;SDS011;42890;44.244;22.530;2023-01-28T11:36:23;47.88;;;37.08;;
56997;SDS011;42890;44.244;22.530;2023-01-28T11:38:51;55.08;;;38.78;;
56997;SDS011;42890;44.244;22.530;2023-01-28T11:41:18;68.70;;;41.65;;
56997;SDS011;42890;44.244;22.530;2023-01-28T11:43:48;41.20;;;29.33;;
56997;SDS011;42890;44.244;22.530;2023-01-28T12:01:55;8.77;;;8.07;;
56997;SDS011;42890;44.244;22.530;2023-01-28T12:19:52;19.05;;;14.95;;
56997;SDS011;42890;44.244;22.530;2023-01-28T12:25:13;22.55;;;14.40;;
56997;SDS011;42890;44.244;22.530;2023-01-28T12:35:29;9.43;;;8.53;;
56997;SDS011;42890;44.244;22.530;2023-01-28T12:43:11;27.35;;;20.70;;
56997;SDS011;42890;44.244;22.530;2023-01-28T12:45:38;22.65;;;15.10;;
56997;SDS011;42890;44.244;22.530;2023-01-28T12:48:10;22.73;;;17.80;;
56997;SDS011;42890;44.244;22.530;2023-01-28T12:56:49;20.98;;;16.08;;
56997;SDS011;42890;44.244;22.530;2023-01-28T12:59:02;12.90;;;11.50;;
56997;SDS011;42890;44.244;22.530;2023-01-28T13:01:34;12.27;;;11.05;;
56997;SDS011;42890;44.244;22.530;2023-01-28T13:04:12;13.00;;;11.70;;
56997;SDS011;42890;44.244;22.530;2023-01-28T13:07:25;28.83;;;19.20;;
56997;SDS011;42890;44.244;22.530;2023-01-28T13:09:31;14.52;;;12.98;;
56997;SDS011;42890;44.244;22.530;2023-01-28T13:11:58;21.90;;;16.30;;
56997;SDS011;42890;44.244;22.530;2023-01-28T13:14:29;9.55;;;8.63;;
56997;SDS011;42890;44.244;22.530;2023-01-28T13:16:55;23.33;;;17.02;;
56997;SDS011;42890;44.244;22.530;2023-01-28T13:19:23;18.20;;;15.02;;
56997;SDS011;42890;44.244;22.530;2023-01-28T13:21:49;15.00;;;11.18;;
56997;SDS011;42890;44.244;22.530;2023-01-28T13:26:43;12.43;;;11.32;;
56997;SDS011;42890;44.244;22.530;2023-01-28T13:31:40;33.75;;;24.83;;
56997;SDS011;42890;44.244;22.530;2023-01-28T13:34:07;27.83;;;20.42;;
56997;SDS011;42890;44.244;22.530;2023-01-28T13:36:38;35.60;;;26.27;;
56997;SDS011;42890;44.244;22.530;2023-01-28T13:41:41;13.35;;;11.68;;
56997;SDS011;42890;44.244;22.530;2023-01-28T13:46:42;32.38;;;22.20;;
56997;SDS011;42890;44.244;22.530;2023-01-28T13:49:09;31.55;;;23.55;;
56997;SDS011;42890;44.244;22.530;2023-01-28T13:51:38;32.28;;;24.85;;
56997;SDS011;42890;44.244;22.530;2023-01-28T13:54:13;20.00;;;16.95;;
56997;SDS011;42890;44.244;22.530;2023-01-28T13:56:51;26.58;;;21.17;;
56997;SDS011;42890;44.244;22.530;2023-01-28T13:59:28;21.98;;;18.17;;
56997;SDS011;42890;44.244;22.530;2023-01-28T14:02:06;30.30;;;22.55;;
56997;SDS011;42890;44.244;22.530;2023-01-28T14:04:46;24.77;;;20.13;;
56997;SDS011;42890;44.244;22.530;2023-01-28T14:09:46;63.83;;;40.20;;
56997;SDS011;42890;44.244;22.530;2023-01-28T14:15:06;49.95;;;31.52;;
56997;SDS011;42890;44.244;22.530;2023-01-28T14:17:41;40.88;;;28.80;;
56997;SDS011;42890;44.244;22.530;2023-01-28T14:22:41;39.13;;;27.40;;
56997;SDS011;42890;44.244;22.530;2023-01-28T14:25:11;35.50;;;26.17;;
56997;SDS011;42890;44.244;22.530;2023-01-28T14:27:38;43.03;;;30.85;;
56997;SDS011;42890;44.244;22.530;2023-01-28T14:32:48;41.38;;;29.98;;
56997;SDS011;42890;44.244;22.530;2023-01-28T14:35:18;45.80;;;35.30;;
56997;SDS011;42890;44.244;22.530;2023-01-28T14:37:47;38.97;;;28.65;;
56997;SDS011;42890;44.244;22.530;2023-01-28T14:40:15;34.63;;;25.58;;
56997;SDS011;42890;44.244;22.530;2023-01-28T14:42:45;58.88;;;33.92;;
56997;SDS011;42890;44.244;22.530;2023-01-28T14:45:21;44.28;;;28.48;;
56997;SDS011;42890;44.244;22.530;2023-01-28T14:47:53;54.65;;;30.38;;
56997;SDS011;42890;44.244;22.530;2023-01-28T14:58:22;29.92;;;21.92;;
56997;SDS011;42890;44.244;22.530;2023-01-28T15:00:56;103.00;;;41.55;;
56997;SDS011;42890;44.244;22.530;2023-01-28T15:03:23;77.72;;;38.25;;
56997;SDS011;42890;44.244;22.530;2023-01-28T15:06:00;35.35;;;27.40;;
56997;SDS011;42890;44.244;22.530;2023-01-28T15:08:26;33.83;;;28.27;;
56997;SDS011;42890;44.244;22.530;2023-01-28T15:10:52;46.65;;;33.17;;
56997;SDS011;42890;44.244;22.530;2023-01-28T15:13:28;36.00;;;29.20;;
56997;SDS011;42890;44.244;22.530;2023-01-28T15:15:55;28.02;;;23.58;;
56997;SDS011;42890;44.244;22.530;2023-01-28T15:18:29;31.98;;;26.02;;
56997;SDS011;42890;44.244;22.530;2023-01-28T15:20:55;24.88;;;22.45;;
56997;SDS011;42890;44.244;22.530;2023-01-28T15:23:33;32.58;;;28.63;;
56997;SDS011;42890;44.244;22.530;2023-01-28T15:26:08;34.22;;;29.13;;
56997;SDS011;42890;44.244;22.530;2023-01-28T15:28:36;29.58;;;26.38;;
56997;SDS011;42890;44.244;22.530;2023-01-28T15:31:03;39.78;;;31.38;;
56997;SDS011;42890;44.244;22.530;2023-01-28T15:33:29;44.72;;;33.75;;
56997;SDS011;42890;44.244;22.530;2023-01-28T15:35:56;30.40;;;24.85;;
56997;SDS011;42890;44.244;22.530;2023-01-28T15:38:23;22.85;;;20.25;;
56997;SDS011;42890;44.244;22.530;2023-01-28T15:40:53;29.42;;;25.00;;
56997;SDS011;42890;44.244;22.530;2023-01-28T15:45:53;26.33;;;23.40;;
56997;SDS011;42890;44.244;22.530;2023-01-28T15:48:20;26.08;;;23.13;;
56997;SDS011;42890;44.244;22.530;2023-01-28T15:50:47;28.25;;;25.02;;
56997;SDS011;42890;44.244;22.530;2023-01-28T15:53:13;37.20;;;30.83;;
56997;SDS011;42890;44.244;22.530;2023-01-28T15:55:43;28.52;;;25.42;;
56997;SDS011;42890;44.244;22.530;2023-01-28T15:58:15;28.77;;;25.48;;
56997;SDS011;42890;44.244;22.530;2023-01-28T16:00:43;22.75;;;20.55;;
56997;SDS011;42890;44.244;22.530;2023-01-28T16:03:09;17.75;;;16.05;;
56997;SDS011;42890;44.244;22.530;2023-01-28T16:05:37;17.13;;;15.32;;
56997;SDS011;42890;44.244;22.530;2023-01-28T16:08:11;19.23;;;17.25;;
56997;SDS011;42890;44.244;22.530;2023-01-28T16:10:39;18.00;;;16.10;;
56997;SDS011;42890;44.244;22.530;2023-01-28T16:13:11;15.25;;;13.65;;
56997;SDS011;42890;44.244;22.530;2023-01-28T16:15:44;18.55;;;16.73;;
56997;SDS011;42890;44.244;22.530;2023-01-28T16:18:34;16.42;;;14.73;;
56997;SDS011;42890;44.244;22.530;2023-01-28T16:20:58;20.02;;;18.00;;
56997;SDS011;42890;44.244;22.530;2023-01-28T16:23:25;14.63;;;13.32;;
56997;SDS011;42890;44.244;22.530;2023-01-28T16:26:25;15.30;;;13.90;;
56997;SDS011;42890;44.244;22.530;2023-01-28T16:28:45;17.83;;;15.88;;
56997;SDS011;42890;44.244;22.530;2023-01-28T16:31:11;17.17;;;15.48;;